sensor_id;sensor_type;location;lat;lon;timestamp;P1;durP1;ratioP1;P2;durP2;ratioP2
37407;SDS011;24866;50.248;8.252;2023-01-10T00:00:23;2.53;;;0.80;;
37407;SDS011;24866;50.248;8.252;2023-01-10T00:02:56;2.78;;;0.65;;
37407;SDS011;24866;50.248;8.252;2023-01-10T00:05:27;3.65;;;0.68;;
37407;SDS011;24866;50.248;8.252;2023-01-10T00:07:57;1.05;;;0.43;;
37407;SDS011;24866;50.248;8.252;2023-01-10T00:10:30;1.30;;;0.60;;
37407;SDS011;24866;50.248;8.252;2023-01-10T00:13:01;2.33;;;0.77;;
37407;SDS011;24866;50.248;8.252;2023-01-10T00:15:49;1.38;;;0.65;;
37407;SDS011;24866;50.248;8.252;2023-01-10T00:18:19;6.78;;;1.05;;
37407;SDS011;24866;50.248;8.252;2023-01-10T00:20:50;2.50;;;0.80;;
37407;SDS011;24866;50.248;8.252;2023-01-10T00:23:20;3.28;;;0.82;;
37407;SDS011;24866;50.248;8.252;2023-01-10T00:25:52;1.80;;;0.70;;
37407;SDS011;24866;50.248;8.252;2023-01-10T00:28:22;3.15;;;0.80;;
37407;SDS011;24866;50.248;8.252;2023-01-10T00:30:53;3.30;;;0.77;;
37407;SDS011;24866;50.248;8.252;2023-01-10T00:33:28;1.75;;;0.82;;
37407;SDS011;24866;50.248;8.252;2023-01-10T00:36:00;1.90;;;0.85;;
37407;SDS011;24866;50.248;8.252;2023-01-10T00:38:31;2.15;;;0.80;;
37407;SDS011;24866;50.248;8.252;2023-01-10T00:41:05;3.70;;;0.80;;
37407;SDS011;24866;50.248;8.252;2023-01-10T00:43:56;5.00;;;0.70;;
37407;SDS011;24866;50.248;8.252;2023-01-10T00:46:25;2.45;;;0.73;;
37407;SDS011;24866;50.248;8.252;2023-01-10T00:48:55;4.50;;;0.90;;
37407;SDS011;24866;50.248;8.252;2023-01-10T00:51:25;2.22;;;0.80;;
37407;SDS011;24866;50.248;8.252;2023-01-10T00:53:55;3.15;;;0.82;;
37407;SDS011;24866;50.248;8.252;2023-01-10T00:56:28;2.05;;;0.88;;
37407;SDS011;24866;50.248;8.252;2023-01-10T00:58:57;3.15;;;0.90;;
37407;SDS011;24866;50.248;8.252;2023-01-10T01:01:27;1.67;;;0.80;;
37407;SDS011;24866;50.248;8.252;2023-01-10T01:03:57;2.83;;;1.55;;
37407;SDS011;24866;50.248;8.252;2023-01-10T01:06:27;1.67;;;0.70;;
37407;SDS011;24866;50.248;8.252;2023-01-10T01:08:57;2.55;;;0.90;;
37407;SDS011;24866;50.248;8.252;2023-01-10T01:11:29;2.45;;;0.80;;
37407;SDS011;24866;50.248;8.252;2023-01-10T01:13:59;4.05;;;1.20;;
37407;SDS011;24866;50.248;8.252;2023-01-10T01:16:29;3.20;;;1.10;;
37407;SDS011;24866;50.248;8.252;2023-01-10T01:18:59;3.90;;;1.00;;
37407;SDS011;24866;50.248;8.252;2023-01-10T01:21:29;4.18;;;1.00;;
37407;SDS011;24866;50.248;8.252;2023-01-10T01:23:59;3.25;;;0.80;;
37407;SDS011;24866;50.248;8.252;2023-01-10T01:26:31;1.83;;;0.95;;
37407;SDS011;24866;50.248;8.252;2023-01-10T01:31:32;2.30;;;0.73;;
37407;SDS011;24866;50.248;8.252;2023-01-10T01:34:01;3.08;;;1.08;;
37407;SDS011;24866;50.248;8.252;2023-01-10T01:36:39;5.47;;;1.67;;
37407;SDS011;24866;50.248;8.252;2023-01-10T01:39:09;2.47;;;0.80;;
37407;SDS011;24866;50.248;8.252;2023-01-10T01:41:42;3.80;;;1.52;;
37407;SDS011;24866;50.248;8.252;2023-01-10T01:44:28;1.67;;;0.70;;
37407;SDS011;24866;50.248;8.252;2023-01-10T01:47:02;1.88;;;0.88;;
37407;SDS011;24866;50.248;8.252;2023-01-10T01:49:36;4.32;;;1.08;;
37407;SDS011;24866;50.248;8.252;2023-01-10T01:52:09;4.32;;;1.00;;
37407;SDS011;24866;50.248;8.252;2023-01-10T01:54:46;2.53;;;0.80;;
37407;SDS011;24866;50.248;8.252;2023-01-10T01:57:18;2.75;;;0.88;;
37407;SDS011;24866;50.248;8.252;2023-01-10T01:59:51;1.35;;;0.77;;
37407;SDS011;24866;50.248;8.252;2023-01-10T02:02:23;4.72;;;0.70;;
37407;SDS011;24866;50.248;8.252;2023-01-10T02:04:56;3.40;;;1.30;;
37407;SDS011;24866;50.248;8.252;2023-01-10T02:07:29;6.20;;;1.00;;
37407;SDS011;24866;50.248;8.252;2023-01-10T02:10:05;1.85;;;0.80;;
37407;SDS011;24866;50.248;8.252;2023-01-10T02:12:40;1.98;;;0.80;;
37407;SDS011;24866;50.248;8.252;2023-01-10T02:15:11;4.20;;;1.37;;
37407;SDS011;24866;50.248;8.252;2023-01-10T02:17:44;2.08;;;0.63;;
37407;SDS011;24866;50.248;8.252;2023-01-10T02:20:16;4.43;;;1.55;;
37407;SDS011;24866;50.248;8.252;2023-01-10T02:23:03;2.92;;;0.55;;
37407;SDS011;24866;50.248;8.252;2023-01-10T02:26:08;5.93;;;1.20;;
37407;SDS011;24866;50.248;8.252;2023-01-10T02:29:09;1.58;;;0.68;;
37407;SDS011;24866;50.248;8.252;2023-01-10T02:34:53;5.70;;;0.98;;
37407;SDS011;24866;50.248;8.252;2023-01-10T02:37:34;4.68;;;1.10;;
37407;SDS011;24866;50.248;8.252;2023-01-10T02:40:17;3.15;;;1.40;;
37407;SDS011;24866;50.248;8.252;2023-01-10T02:42:54;5.18;;;1.67;;
37407;SDS011;24866;50.248;8.252;2023-01-10T02:45:29;5.43;;;2.13;;
37407;SDS011;24866;50.248;8.252;2023-01-10T02:48:06;5.18;;;1.48;;
37407;SDS011;24866;50.248;8.252;2023-01-10T02:50:44;1.98;;;0.60;;
37407;SDS011;24866;50.248;8.252;2023-01-10T02:53:22;2.40;;;1.13;;
37407;SDS011;24866;50.248;8.252;2023-01-10T02:59:22;5.35;;;1.20;;
37407;SDS011;24866;50.248;8.252;2023-01-10T03:02:17;9.63;;;1.40;;
37407;SDS011;24866;50.248;8.252;2023-01-10T03:05:02;3.13;;;0.88;;
37407;SDS011;24866;50.248;8.252;2023-01-10T03:07:39;4.07;;;1.30;;
37407;SDS011;24866;50.248;8.252;2023-01-10T03:10:21;4.03;;;1.00;;
37407;SDS011;24866;50.248;8.252;2023-01-10T03:12:57;5.40;;;1.17;;
37407;SDS011;24866;50.248;8.252;2023-01-10T03:15:30;7.30;;;1.42;;
37407;SDS011;24866;50.248;8.252;2023-01-10T03:18:04;7.30;;;1.40;;
37407;SDS011;24866;50.248;8.252;2023-01-10T03:20:41;6.47;;;1.30;;
37407;SDS011;24866;50.248;8.252;2023-01-10T03:23:15;6.85;;;1.10;;
37407;SDS011;24866;50.248;8.252;2023-01-10T03:25:47;6.22;;;1.10;;
37407;SDS011;24866;50.248;8.252;2023-01-10T03:28:20;5.55;;;1.17;;
37407;SDS011;24866;50.248;8.252;2023-01-10T03:30:57;4.63;;;1.65;;
37407;SDS011;24866;50.248;8.252;2023-01-10T03:33:32;5.68;;;0.85;;
37407;SDS011;24866;50.248;8.252;2023-01-10T03:36:08;4.97;;;1.60;;
37407;SDS011;24866;50.248;8.252;2023-01-10T03:38:49;3.40;;;1.05;;
37407;SDS011;24866;50.248;8.252;2023-01-10T03:41:23;5.47;;;1.45;;
37407;SDS011;24866;50.248;8.252;2023-01-10T03:44:05;5.70;;;1.60;;
37407;SDS011;24866;50.248;8.252;2023-01-10T03:47:03;3.25;;;0.95;;
37407;SDS011;24866;50.248;8.252;2023-01-10T03:49:38;9.73;;;2.45;;
37407;SDS011;24866;50.248;8.252;2023-01-10T03:52:13;6.70;;;2.25;;
37407;SDS011;24866;50.248;8.252;2023-01-10T03:54:45;7.05;;;1.90;;
37407;SDS011;24866;50.248;8.252;2023-01-10T03:57:16;14.15;;;1.90;;
37407;SDS011;24866;50.248;8.252;2023-01-10T03:59:49;6.53;;;1.70;;
37407;SDS011;24866;50.248;8.252;2023-01-10T04:02:25;5.97;;;1.60;;
37407;SDS011;24866;50.248;8.252;2023-01-10T04:04:56;11.38;;;2.45;;
37407;SDS011;24866;50.248;8.252;2023-01-10T04:07:28;5.38;;;2.28;;
37407;SDS011;24866;50.248;8.252;2023-01-10T04:09:58;5.45;;;1.02;;
37407;SDS011;24866;50.248;8.252;2023-01-10T04:12:28;7.03;;;1.45;;
37407;SDS011;24866;50.248;8.252;2023-01-10T04:14:58;4.65;;;1.73;;
37407;SDS011;24866;50.248;8.252;2023-01-10T04:17:29;8.68;;;1.67;;
37407;SDS011;24866;50.248;8.252;2023-01-10T04:20:00;7.82;;;1.80;;
37407;SDS011;24866;50.248;8.252;2023-01-10T04:22:39;6.30;;;1.63;;
37407;SDS011;24866;50.248;8.252;2023-01-10T04:25:10;11.07;;;2.28;;
37407;SDS011;24866;50.248;8.252;2023-01-10T04:27:40;9.13;;;1.85;;
37407;SDS011;24866;50.248;8.252;2023-01-10T04:30:10;7.38;;;2.30;;
37407;SDS011;24866;50.248;8.252;2023-01-10T04:32:40;9.40;;;1.70;;
37407;SDS011;24866;50.248;8.252;2023-01-10T04:35:11;10.30;;;2.40;;
37407;SDS011;24866;50.248;8.252;2023-01-10T04:37:42;8.85;;;1.92;;
37407;SDS011;24866;50.248;8.252;2023-01-10T04:40:13;5.63;;;1.70;;
37407;SDS011;24866;50.248;8.252;2023-01-10T04:42:46;9.80;;;2.15;;
37407;SDS011;24866;50.248;8.252;2023-01-10T04:45:16;10.00;;;2.08;;
37407;SDS011;24866;50.248;8.252;2023-01-10T04:47:50;8.27;;;1.40;;
37407;SDS011;24866;50.248;8.252;2023-01-10T04:50:23;7.28;;;1.33;;
37407;SDS011;24866;50.248;8.252;2023-01-10T04:52:57;8.20;;;2.58;;
37407;SDS011;24866;50.248;8.252;2023-01-10T04:55:27;9.75;;;2.70;;
37407;SDS011;24866;50.248;8.252;2023-01-10T04:57:57;7.13;;;2.72;;
37407;SDS011;24866;50.248;8.252;2023-01-10T05:00:27;8.43;;;2.83;;
37407;SDS011;24866;50.248;8.252;2023-01-10T05:02:57;11.32;;;2.05;;
37407;SDS011;24866;50.248;8.252;2023-01-10T05:05:27;10.70;;;2.42;;
37407;SDS011;24866;50.248;8.252;2023-01-10T05:07:58;7.97;;;1.50;;
37407;SDS011;24866;50.248;8.252;2023-01-10T05:10:28;12.20;;;2.22;;
37407;SDS011;24866;50.248;8.252;2023-01-10T05:12:58;14.45;;;2.55;;
37407;SDS011;24866;50.248;8.252;2023-01-10T05:15:28;6.70;;;1.92;;
37407;SDS011;24866;50.248;8.252;2023-01-10T05:17:58;7.57;;;2.72;;
37407;SDS011;24866;50.248;8.252;2023-01-10T05:20:28;5.45;;;1.75;;
37407;SDS011;24866;50.248;8.252;2023-01-10T05:22:59;6.18;;;2.45;;
37407;SDS011;24866;50.248;8.252;2023-01-10T05:25:29;6.78;;;1.77;;
37407;SDS011;24866;50.248;8.252;2023-01-10T05:27:59;9.93;;;2.25;;
37407;SDS011;24866;50.248;8.252;2023-01-10T05:30:29;9.52;;;2.05;;
37407;SDS011;24866;50.248;8.252;2023-01-10T05:32:59;9.60;;;2.22;;
37407;SDS011;24866;50.248;8.252;2023-01-10T05:35:31;6.78;;;2.00;;
37407;SDS011;24866;50.248;8.252;2023-01-10T05:38:03;8.48;;;2.38;;
37407;SDS011;24866;50.248;8.252;2023-01-10T05:40:33;10.20;;;1.77;;
37407;SDS011;24866;50.248;8.252;2023-01-10T05:43:03;8.82;;;2.72;;
37407;SDS011;24866;50.248;8.252;2023-01-10T05:45:33;9.13;;;2.13;;
37407;SDS011;24866;50.248;8.252;2023-01-10T05:48:03;10.30;;;2.25;;
37407;SDS011;24866;50.248;8.252;2023-01-10T05:50:33;10.63;;;2.10;;
37407;SDS011;24866;50.248;8.252;2023-01-10T05:53:04;13.90;;;2.38;;
37407;SDS011;24866;50.248;8.252;2023-01-10T05:55:34;12.20;;;2.72;;
37407;SDS011;24866;50.248;8.252;2023-01-10T05:58:04;8.35;;;2.40;;
37407;SDS011;24866;50.248;8.252;2023-01-10T06:00:34;8.13;;;2.38;;
37407;SDS011;24866;50.248;8.252;2023-01-10T06:03:04;7.45;;;1.20;;
37407;SDS011;24866;50.248;8.252;2023-01-10T06:05:34;6.18;;;1.75;;
37407;SDS011;24866;50.248;8.252;2023-01-10T06:08:06;6.40;;;1.90;;
37407;SDS011;24866;50.248;8.252;2023-01-10T06:10:36;8.05;;;1.63;;
37407;SDS011;24866;50.248;8.252;2023-01-10T06:13:06;10.38;;;1.90;;
37407;SDS011;24866;50.248;8.252;2023-01-10T06:15:37;7.25;;;1.85;;
37407;SDS011;24866;50.248;8.252;2023-01-10T06:18:07;6.30;;;1.67;;
37407;SDS011;24866;50.248;8.252;2023-01-10T06:20:37;9.15;;;1.88;;
37407;SDS011;24866;50.248;8.252;2023-01-10T06:23:08;7.03;;;1.83;;
37407;SDS011;24866;50.248;8.252;2023-01-10T06:25:38;12.65;;;1.90;;
37407;SDS011;24866;50.248;8.252;2023-01-10T06:28:09;6.18;;;2.17;;
37407;SDS011;24866;50.248;8.252;2023-01-10T06:30:40;6.82;;;2.53;;
37407;SDS011;24866;50.248;8.252;2023-01-10T06:33:10;8.13;;;2.50;;
37407;SDS011;24866;50.248;8.252;2023-01-10T06:35:40;8.07;;;1.80;;
37407;SDS011;24866;50.248;8.252;2023-01-10T06:38:12;10.75;;;2.83;;
37407;SDS011;24866;50.248;8.252;2023-01-10T06:40:42;8.32;;;2.20;;
37407;SDS011;24866;50.248;8.252;2023-01-10T06:43:12;8.80;;;2.55;;
37407;SDS011;24866;50.248;8.252;2023-01-10T06:45:41;4.85;;;2.03;;
37407;SDS011;24866;50.248;8.252;2023-01-10T06:48:15;9.32;;;2.53;;
37407;SDS011;24866;50.248;8.252;2023-01-10T06:50:48;9.75;;;2.35;;
37407;SDS011;24866;50.248;8.252;2023-01-10T06:53:19;8.70;;;2.55;;
37407;SDS011;24866;50.248;8.252;2023-01-10T06:55:49;11.82;;;2.67;;
37407;SDS011;24866;50.248;8.252;2023-01-10T06:58:19;8.48;;;2.10;;
37407;SDS011;24866;50.248;8.252;2023-01-10T07:00:49;12.40;;;3.50;;
37407;SDS011;24866;50.248;8.252;2023-01-10T07:03:19;9.32;;;2.20;;
37407;SDS011;24866;50.248;8.252;2023-01-10T07:05:49;11.65;;;1.92;;
37407;SDS011;24866;50.248;8.252;2023-01-10T07:08:21;9.80;;;3.10;;
37407;SDS011;24866;50.248;8.252;2023-01-10T07:10:50;6.30;;;1.67;;
37407;SDS011;24866;50.248;8.252;2023-01-10T07:13:20;6.28;;;2.35;;
37407;SDS011;24866;50.248;8.252;2023-01-10T07:15:51;12.77;;;2.50;;
37407;SDS011;24866;50.248;8.252;2023-01-10T07:18:21;7.20;;;2.20;;
37407;SDS011;24866;50.248;8.252;2023-01-10T07:20:51;8.45;;;2.20;;
37407;SDS011;24866;50.248;8.252;2023-01-10T07:23:23;9.20;;;3.05;;
37407;SDS011;24866;50.248;8.252;2023-01-10T07:25:53;8.52;;;1.73;;
37407;SDS011;24866;50.248;8.252;2023-01-10T07:28:23;10.02;;;2.22;;
37407;SDS011;24866;50.248;8.252;2023-01-10T07:30:53;8.52;;;2.03;;
37407;SDS011;24866;50.248;8.252;2023-01-10T07:33:26;11.65;;;2.83;;
37407;SDS011;24866;50.248;8.252;2023-01-10T07:35:56;9.10;;;2.78;;
37407;SDS011;24866;50.248;8.252;2023-01-10T07:38:27;5.57;;;1.90;;
37407;SDS011;24866;50.248;8.252;2023-01-10T07:41:00;12.73;;;2.55;;
37407;SDS011;24866;50.248;8.252;2023-01-10T07:43:30;14.00;;;2.75;;
37407;SDS011;24866;50.248;8.252;2023-01-10T07:46:02;9.38;;;2.10;;
37407;SDS011;24866;50.248;8.252;2023-01-10T07:48:35;9.40;;;2.15;;
37407;SDS011;24866;50.248;8.252;2023-01-10T07:51:05;9.15;;;2.03;;
37407;SDS011;24866;50.248;8.252;2023-01-10T07:53:36;7.50;;;2.10;;
37407;SDS011;24866;50.248;8.252;2023-01-10T07:56:06;11.57;;;2.63;;
37407;SDS011;24866;50.248;8.252;2023-01-10T07:58:36;12.00;;;2.85;;
37407;SDS011;24866;50.248;8.252;2023-01-10T08:01:06;11.07;;;2.20;;
37407;SDS011;24866;50.248;8.252;2023-01-10T08:03:36;11.27;;;2.53;;
37407;SDS011;24866;50.248;8.252;2023-01-10T08:06:07;9.30;;;3.22;;
37407;SDS011;24866;50.248;8.252;2023-01-10T08:08:39;9.35;;;2.10;;
37407;SDS011;24866;50.248;8.252;2023-01-10T08:11:09;7.10;;;1.77;;
37407;SDS011;24866;50.248;8.252;2023-01-10T08:13:39;9.60;;;1.67;;
37407;SDS011;24866;50.248;8.252;2023-01-10T08:16:09;14.88;;;3.15;;
37407;SDS011;24866;50.248;8.252;2023-01-10T08:18:39;13.25;;;2.20;;
37407;SDS011;24866;50.248;8.252;2023-01-10T08:21:10;10.70;;;2.28;;
37407;SDS011;24866;50.248;8.252;2023-01-10T08:23:41;11.10;;;2.08;;
37407;SDS011;24866;50.248;8.252;2023-01-10T08:26:11;9.95;;;1.52;;
37407;SDS011;24866;50.248;8.252;2023-01-10T08:28:41;16.48;;;1.92;;
37407;SDS011;24866;50.248;8.252;2023-01-10T08:31:11;9.98;;;1.75;;
37407;SDS011;24866;50.248;8.252;2023-01-10T08:33:41;8.05;;;2.83;;
37407;SDS011;24866;50.248;8.252;2023-01-10T08:36:15;10.50;;;1.98;;
37407;SDS011;24866;50.248;8.252;2023-01-10T08:38:47;6.95;;;1.77;;
37407;SDS011;24866;50.248;8.252;2023-01-10T08:41:19;11.73;;;2.65;;
37407;SDS011;24866;50.248;8.252;2023-01-10T08:43:49;10.80;;;1.83;;
37407;SDS011;24866;50.248;8.252;2023-01-10T08:46:19;8.48;;;2.45;;
37407;SDS011;24866;50.248;8.252;2023-01-10T08:48:49;10.15;;;1.48;;
37407;SDS011;24866;50.248;8.252;2023-01-10T08:51:19;9.98;;;2.22;;
37407;SDS011;24866;50.248;8.252;2023-01-10T08:53:51;13.15;;;1.80;;
37407;SDS011;24866;50.248;8.252;2023-01-10T08:56:21;12.40;;;3.17;;
37407;SDS011;24866;50.248;8.252;2023-01-10T08:58:51;6.75;;;1.42;;
37407;SDS011;24866;50.248;8.252;2023-01-10T09:01:22;16.60;;;3.47;;
37407;SDS011;24866;50.248;8.252;2023-01-10T09:03:52;9.15;;;1.90;;
37407;SDS011;24866;50.248;8.252;2023-01-10T09:06:24;10.80;;;1.50;;
37407;SDS011;24866;50.248;8.252;2023-01-10T09:08:56;9.88;;;1.88;;
37407;SDS011;24866;50.248;8.252;2023-01-10T09:11:27;13.48;;;1.67;;
37407;SDS011;24866;50.248;8.252;2023-01-10T09:13:58;9.82;;;2.00;;
37407;SDS011;24866;50.248;8.252;2023-01-10T09:16:28;10.60;;;2.53;;
37407;SDS011;24866;50.248;8.252;2023-01-10T09:18:58;11.10;;;2.08;;
37407;SDS011;24866;50.248;8.252;2023-01-10T09:21:28;12.70;;;2.47;;
37407;SDS011;24866;50.248;8.252;2023-01-10T09:24:00;12.27;;;2.17;;
37407;SDS011;24866;50.248;8.252;2023-01-10T09:26:29;10.77;;;1.60;;
37407;SDS011;24866;50.248;8.252;2023-01-10T09:28:59;17.02;;;2.42;;
37407;SDS011;24866;50.248;8.252;2023-01-10T09:31:29;9.52;;;2.10;;
37407;SDS011;24866;50.248;8.252;2023-01-10T09:33:59;7.88;;;2.17;;
37407;SDS011;24866;50.248;8.252;2023-01-10T09:36:29;6.20;;;1.70;;
37407;SDS011;24866;50.248;8.252;2023-01-10T09:39:01;10.55;;;2.17;;
37407;SDS011;24866;50.248;8.252;2023-01-10T09:41:35;10.50;;;1.43;;
37407;SDS011;24866;50.248;8.252;2023-01-10T09:44:20;14.45;;;1.95;;
37407;SDS011;24866;50.248;8.252;2023-01-10T09:46:59;13.23;;;1.85;;
37407;SDS011;24866;50.248;8.252;2023-01-10T09:49:43;6.40;;;1.70;;
37407;SDS011;24866;50.248;8.252;2023-01-10T09:52:20;13.10;;;1.88;;
37407;SDS011;24866;50.248;8.252;2023-01-10T09:54:54;13.18;;;2.00;;
37407;SDS011;24866;50.248;8.252;2023-01-10T09:57:28;10.07;;;2.10;;
37407;SDS011;24866;50.248;8.252;2023-01-10T09:59:58;12.80;;;2.20;;
37407;SDS011;24866;50.248;8.252;2023-01-10T10:02:30;11.75;;;2.70;;
37407;SDS011;24866;50.248;8.252;2023-01-10T10:05:09;7.20;;;2.53;;
37407;SDS011;24866;50.248;8.252;2023-01-10T10:07:45;12.85;;;2.25;;
37407;SDS011;24866;50.248;8.252;2023-01-10T10:10:23;11.45;;;2.08;;
37407;SDS011;24866;50.248;8.252;2023-01-10T10:12:59;10.90;;;2.40;;
37407;SDS011;24866;50.248;8.252;2023-01-10T10:15:41;9.35;;;1.73;;
37407;SDS011;24866;50.248;8.252;2023-01-10T10:18:23;13.50;;;2.88;;
37407;SDS011;24866;50.248;8.252;2023-01-10T10:21:04;9.77;;;1.88;;
37407;SDS011;24866;50.248;8.252;2023-01-10T10:23:51;13.57;;;1.95;;
37407;SDS011;24866;50.248;8.252;2023-01-10T10:26:35;9.65;;;2.20;;
37407;SDS011;24866;50.248;8.252;2023-01-10T10:29:27;13.82;;;2.38;;
37407;SDS011;24866;50.248;8.252;2023-01-10T10:32:23;8.77;;;1.40;;
37407;SDS011;24866;50.248;8.252;2023-01-10T10:35:06;12.18;;;1.88;;
37407;SDS011;24866;50.248;8.252;2023-01-10T10:37:42;7.57;;;2.10;;
37407;SDS011;24866;50.248;8.252;2023-01-10T10:40:17;9.18;;;1.98;;
37407;SDS011;24866;50.248;8.252;2023-01-10T10:42:51;13.98;;;2.10;;
37407;SDS011;24866;50.248;8.252;2023-01-10T10:45:28;10.60;;;1.83;;
37407;SDS011;24866;50.248;8.252;2023-01-10T10:48:10;6.93;;;1.50;;
37407;SDS011;24866;50.248;8.252;2023-01-10T10:50:47;11.60;;;2.13;;
37407;SDS011;24866;50.248;8.252;2023-01-10T10:53:22;10.52;;;2.38;;
37407;SDS011;24866;50.248;8.252;2023-01-10T10:55:52;8.35;;;2.25;;
37407;SDS011;24866;50.248;8.252;2023-01-10T10:58:25;10.75;;;2.25;;
37407;SDS011;24866;50.248;8.252;2023-01-10T11:00:58;9.60;;;2.33;;
37407;SDS011;24866;50.248;8.252;2023-01-10T11:03:31;15.13;;;2.40;;
37407;SDS011;24866;50.248;8.252;2023-01-10T11:06:06;10.82;;;2.40;;
37407;SDS011;24866;50.248;8.252;2023-01-10T11:08:38;10.38;;;1.98;;
37407;SDS011;24866;50.248;8.252;2023-01-10T11:11:14;8.10;;;1.75;;
37407;SDS011;24866;50.248;8.252;2023-01-10T11:13:52;13.55;;;2.90;;
37407;SDS011;24866;50.248;8.252;2023-01-10T11:16:25;8.02;;;1.67;;
37407;SDS011;24866;50.248;8.252;2023-01-10T11:19:13;4.28;;;1.02;;
37407;SDS011;24866;50.248;8.252;2023-01-10T11:21:51;14.43;;;2.03;;
37407;SDS011;24866;50.248;8.252;2023-01-10T11:24:25;10.40;;;2.08;;
37407;SDS011;24866;50.248;8.252;2023-01-10T11:26:58;6.72;;;1.38;;
37407;SDS011;24866;50.248;8.252;2023-01-10T11:32:07;12.50;;;3.35;;
37407;SDS011;24866;50.248;8.252;2023-01-10T11:34:46;9.45;;;1.90;;
37407;SDS011;24866;50.248;8.252;2023-01-10T11:37:21;17.17;;;2.92;;
37407;SDS011;24866;50.248;8.252;2023-01-10T11:40:16;10.30;;;1.90;;
37407;SDS011;24866;50.248;8.252;2023-01-10T11:42:51;9.73;;;2.55;;
37407;SDS011;24866;50.248;8.252;2023-01-10T11:45:28;11.75;;;2.20;;
37407;SDS011;24866;50.248;8.252;2023-01-10T11:48:06;7.97;;;1.88;;
37407;SDS011;24866;50.248;8.252;2023-01-10T11:50:38;8.75;;;2.70;;
37407;SDS011;24866;50.248;8.252;2023-01-10T11:53:26;11.32;;;2.40;;
37407;SDS011;24866;50.248;8.252;2023-01-10T11:56:08;12.68;;;2.25;;
37407;SDS011;24866;50.248;8.252;2023-01-10T11:58:42;10.00;;;2.47;;
37407;SDS011;24866;50.248;8.252;2023-01-10T12:01:25;15.63;;;2.20;;
37407;SDS011;24866;50.248;8.252;2023-01-10T12:03:58;12.63;;;2.03;;
37407;SDS011;24866;50.248;8.252;2023-01-10T12:06:29;10.25;;;2.35;;
37407;SDS011;24866;50.248;8.252;2023-01-10T12:09:00;11.40;;;2.40;;
37407;SDS011;24866;50.248;8.252;2023-01-10T12:11:31;12.02;;;3.10;;
37407;SDS011;24866;50.248;8.252;2023-01-10T12:14:08;14.00;;;2.80;;
37407;SDS011;24866;50.248;8.252;2023-01-10T12:16:56;10.57;;;1.90;;
37407;SDS011;24866;50.248;8.252;2023-01-10T12:19:28;11.20;;;2.63;;
37407;SDS011;24866;50.248;8.252;2023-01-10T12:21:59;14.00;;;2.03;;
37407;SDS011;24866;50.248;8.252;2023-01-10T12:24:33;10.45;;;2.08;;
37407;SDS011;24866;50.248;8.252;2023-01-10T12:27:08;13.15;;;2.03;;
37407;SDS011;24866;50.248;8.252;2023-01-10T12:29:41;13.95;;;3.45;;
37407;SDS011;24866;50.248;8.252;2023-01-10T12:32:19;17.20;;;4.25;;
37407;SDS011;24866;50.248;8.252;2023-01-10T12:34:55;16.42;;;3.08;;
37407;SDS011;24866;50.248;8.252;2023-01-10T12:37:29;10.48;;;2.88;;
37407;SDS011;24866;50.248;8.252;2023-01-10T12:40:08;11.65;;;2.03;;
37407;SDS011;24866;50.248;8.252;2023-01-10T12:42:46;9.88;;;1.90;;
37407;SDS011;24866;50.248;8.252;2023-01-10T12:45:41;9.00;;;1.98;;
37407;SDS011;24866;50.248;8.252;2023-01-10T12:48:19;14.88;;;2.35;;
37407;SDS011;24866;50.248;8.252;2023-01-10T12:50:57;8.82;;;2.05;;
37407;SDS011;24866;50.248;8.252;2023-01-10T12:53:34;15.27;;;2.50;;
37407;SDS011;24866;50.248;8.252;2023-01-10T12:56:10;9.73;;;2.00;;
37407;SDS011;24866;50.248;8.252;2023-01-10T12:58:43;13.13;;;2.97;;
37407;SDS011;24866;50.248;8.252;2023-01-10T13:01:17;13.77;;;1.77;;
37407;SDS011;24866;50.248;8.252;2023-01-10T13:03:53;9.93;;;2.55;;
37407;SDS011;24866;50.248;8.252;2023-01-10T13:06:29;13.65;;;1.90;;
37407;SDS011;24866;50.248;8.252;2023-01-10T13:09:03;12.77;;;3.22;;
37407;SDS011;24866;50.248;8.252;2023-01-10T13:11:37;11.20;;;2.33;;
37407;SDS011;24866;50.248;8.252;2023-01-10T13:14:13;15.60;;;2.97;;
37407;SDS011;24866;50.248;8.252;2023-01-10T13:16:47;11.38;;;1.83;;
37407;SDS011;24866;50.248;8.252;2023-01-10T13:19:25;17.77;;;3.00;;
37407;SDS011;24866;50.248;8.252;2023-01-10T13:24:58;7.60;;;2.70;;
37407;SDS011;24866;50.248;8.252;2023-01-10T13:27:31;10.02;;;2.00;;
37407;SDS011;24866;50.248;8.252;2023-01-10T13:30:03;10.82;;;2.72;;
37407;SDS011;24866;50.248;8.252;2023-01-10T13:32:34;14.20;;;2.33;;
37407;SDS011;24866;50.248;8.252;2023-01-10T13:35:11;10.35;;;2.75;;
37407;SDS011;24866;50.248;8.252;2023-01-10T13:37:48;12.93;;;2.85;;
37407;SDS011;24866;50.248;8.252;2023-01-10T13:40:21;12.65;;;2.30;;
37407;SDS011;24866;50.248;8.252;2023-01-10T13:49:38;10.88;;;2.03;;
37407;SDS011;24866;50.248;8.252;2023-01-10T13:52:26;10.88;;;3.22;;
37407;SDS011;24866;50.248;8.252;2023-01-10T13:55:01;14.15;;;3.88;;
37407;SDS011;24866;50.248;8.252;2023-01-10T13:57:51;14.75;;;2.78;;
37407;SDS011;24866;50.248;8.252;2023-01-10T14:00:24;10.85;;;2.33;;
37407;SDS011;24866;50.248;8.252;2023-01-10T14:03:43;12.05;;;2.95;;
37407;SDS011;24866;50.248;8.252;2023-01-10T14:06:33;20.27;;;3.75;;
37407;SDS011;24866;50.248;8.252;2023-01-10T14:12:06;10.35;;;2.53;;
37407;SDS011;24866;50.248;8.252;2023-01-10T14:14:52;12.57;;;3.28;;
37407;SDS011;24866;50.248;8.252;2023-01-10T14:17:28;15.27;;;4.07;;
37407;SDS011;24866;50.248;8.252;2023-01-10T14:22:45;15.55;;;3.28;;
37407;SDS011;24866;50.248;8.252;2023-01-10T14:25:28;11.55;;;2.47;;
37407;SDS011;24866;50.248;8.252;2023-01-10T14:28:01;14.32;;;3.72;;
37407;SDS011;24866;50.248;8.252;2023-01-10T14:30:33;14.00;;;4.40;;
37407;SDS011;24866;50.248;8.252;2023-01-10T14:33:06;14.23;;;4.63;;
37407;SDS011;24866;50.248;8.252;2023-01-10T14:35:42;16.35;;;5.07;;
37407;SDS011;24866;50.248;8.252;2023-01-10T14:38:16;22.42;;;4.65;;
37407;SDS011;24866;50.248;8.252;2023-01-10T14:40:54;13.55;;;4.15;;
37407;SDS011;24866;50.248;8.252;2023-01-10T14:43:28;15.40;;;3.88;;
37407;SDS011;24866;50.248;8.252;2023-01-10T14:46:05;13.82;;;3.65;;
37407;SDS011;24866;50.248;8.252;2023-01-10T14:48:44;15.35;;;4.53;;
37407;SDS011;24866;50.248;8.252;2023-01-10T14:51:16;16.73;;;3.90;;
37407;SDS011;24866;50.248;8.252;2023-01-10T14:53:55;18.25;;;5.68;;
37407;SDS011;24866;50.248;8.252;2023-01-10T14:56:35;13.68;;;4.35;;
37407;SDS011;24866;50.248;8.252;2023-01-10T14:59:16;12.73;;;4.43;;
37407;SDS011;24866;50.248;8.252;2023-01-10T15:01:51;15.85;;;4.43;;
37407;SDS011;24866;50.248;8.252;2023-01-10T15:04:24;13.88;;;4.10;;
37407;SDS011;24866;50.248;8.252;2023-01-10T15:06:56;15.85;;;4.18;;
37407;SDS011;24866;50.248;8.252;2023-01-10T15:09:30;15.30;;;3.70;;
37407;SDS011;24866;50.248;8.252;2023-01-10T15:12:03;17.20;;;3.60;;
37407;SDS011;24866;50.248;8.252;2023-01-10T15:14:35;15.32;;;4.35;;
37407;SDS011;24866;50.248;8.252;2023-01-10T15:17:05;18.20;;;4.55;;
37407;SDS011;24866;50.248;8.252;2023-01-10T15:19:44;21.75;;;4.20;;
37407;SDS011;24866;50.248;8.252;2023-01-10T15:22:26;13.68;;;4.30;;
37407;SDS011;24866;50.248;8.252;2023-01-10T15:24:59;19.73;;;3.53;;
37407;SDS011;24866;50.248;8.252;2023-01-10T15:27:32;16.13;;;4.10;;
37407;SDS011;24866;50.248;8.252;2023-01-10T15:30:06;16.02;;;3.95;;
37407;SDS011;24866;50.248;8.252;2023-01-10T15:32:37;22.88;;;4.07;;
37407;SDS011;24866;50.248;8.252;2023-01-10T15:35:09;15.00;;;2.83;;
37407;SDS011;24866;50.248;8.252;2023-01-10T15:37:44;11.13;;;3.25;;
37407;SDS011;24866;50.248;8.252;2023-01-10T15:40:20;8.77;;;2.55;;
37407;SDS011;24866;50.248;8.252;2023-01-10T15:45:38;17.25;;;3.60;;
37407;SDS011;24866;50.248;8.252;2023-01-10T15:48:23;17.67;;;3.57;;
37407;SDS011;24866;50.248;8.252;2023-01-10T15:50:55;14.32;;;2.63;;